createdAt,value
2019-06-04T00:01:43.171Z,19.70
2019-06-04T00:04:11.932Z,19.70
2019-06-04T00:06:40.390Z,19.70
2019-06-04T00:09:09.043Z,19.70
2019-06-04T00:11:37.509Z,19.60
2019-06-04T00:16:42.084Z,19.60
2019-06-04T00:19:10.492Z,19.60
2019-06-04T00:21:38.917Z,19.50
2019-06-04T00:24:07.355Z,19.40
2019-06-04T00:26:35.783Z,19.40
2019-06-04T00:29:04.282Z,19.40
2019-06-04T00:31:35.208Z,19.40
2019-06-04T00:34:04.497Z,19.40
2019-06-04T00:36:33.131Z,19.40
2019-06-04T00:39:02.548Z,19.40
2019-06-04T00:41:31.426Z,19.40
2019-06-04T00:44:00.963Z,19.40
2019-06-04T00:46:30.589Z,19.40
2019-06-04T00:48:59.093Z,19.40
2019-06-04T00:51:27.532Z,19.40
2019-06-04T00:53:56.845Z,19.50
2019-06-04T00:56:25.351Z,19.60
2019-06-04T00:58:53.788Z,19.60
2019-06-04T01:01:22.572Z,19.60
2019-06-04T01:03:51.358Z,19.70
2019-06-04T01:06:19.798Z,19.70
2019-06-04T01:08:48.258Z,19.70
2019-06-04T01:11:16.674Z,19.70
2019-06-04T01:13:45.097Z,19.80
2019-06-04T01:16:13.833Z,19.70
2019-06-04T01:18:42.338Z,19.70
2019-06-04T01:21:10.768Z,19.80
2019-06-04T01:23:39.437Z,19.80
2019-06-04T01:26:09.610Z,19.70
2019-06-04T01:28:38.230Z,19.70
2019-06-04T01:31:08.105Z,19.60
2019-06-04T01:33:40.278Z,19.70
2019-06-04T01:36:06.916Z,19.70
2019-06-04T01:38:35.411Z,19.80
2019-06-04T01:41:05.033Z,19.80
2019-06-04T01:43:33.674Z,19.80
2019-06-04T01:46:03.585Z,19.80
2019-06-04T01:48:32.158Z,19.80
2019-06-04T01:51:01.972Z,19.70
2019-06-04T01:53:30.758Z,19.70
2019-06-04T01:55:59.198Z,19.60
2019-06-04T01:58:27.615Z,19.60
2019-06-04T02:00:56.072Z,19.60
2019-06-04T02:03:24.509Z,19.70
2019-06-04T02:05:52.954Z,19.70
2019-06-04T02:08:21.468Z,19.70
2019-06-04T02:11:10.475Z,19.80
2019-06-04T02:13:39.124Z,19.80
2019-06-04T02:16:16.695Z,19.70
2019-06-04T02:18:37.738Z,19.80
2019-06-04T02:21:07.859Z,19.70
2019-06-04T02:23:36.510Z,19.80
2019-06-04T02:26:06.215Z,19.70
2019-06-04T02:28:34.910Z,19.70
2019-06-04T02:31:03.387Z,19.70
2019-06-04T02:33:34.699Z,19.70
2019-06-04T02:36:01.950Z,19.60
2019-06-04T02:38:30.403Z,19.60
2019-06-04T02:40:58.939Z,19.60
2019-06-04T02:43:27.653Z,19.50
2019-06-04T02:45:57.281Z,19.50
2019-06-04T02:48:26.802Z,19.50
2019-06-04T02:50:56.803Z,19.50
2019-06-04T02:53:25.735Z,19.50
2019-06-04T02:55:54.346Z,19.50
2019-06-04T02:58:25.205Z,19.40
2019-06-04T03:00:59.073Z,19.40
2019-06-04T03:03:30.456Z,19.50
2019-06-04T03:05:57.887Z,19.40
2019-06-04T03:08:26.948Z,19.40
2019-06-04T03:10:55.487Z,19.40
2019-06-04T03:13:24.392Z,19.50
2019-06-04T03:15:52.837Z,19.50
2019-06-04T03:18:21.289Z,19.50
2019-06-04T03:20:49.856Z,19.50
2019-06-04T03:23:19.169Z,19.50
2019-06-04T03:25:47.968Z,19.60
2019-06-04T03:28:17.536Z,19.60
2019-06-04T03:30:46.460Z,19.50
2019-06-04T03:33:17.522Z,19.60
2019-06-04T03:35:45.478Z,19.50
2019-06-04T03:38:14.941Z,19.50
2019-06-04T03:40:43.577Z,19.50
2019-06-04T03:43:11.992Z,19.50
2019-06-04T03:45:40.433Z,19.50
2019-06-04T03:48:08.848Z,19.40
2019-06-04T03:50:37.576Z,19.40
2019-06-04T03:53:06.019Z,19.30
2019-06-04T03:55:34.419Z,19.20
2019-06-04T03:58:02.840Z,19.10
2019-06-04T04:00:31.591Z,19.10
2019-06-04T04:03:00.049Z,19.00
2019-06-04T04:05:29.268Z,19.00
2019-06-04T04:07:57.904Z,19.00
2019-06-04T04:10:26.782Z,18.90
2019-06-04T04:12:55.255Z,18.90
2019-06-04T04:15:24.985Z,18.90
2019-06-04T04:17:53.778Z,18.90
2019-06-04T04:20:23.185Z,18.90
2019-06-04T04:22:51.808Z,18.90
2019-06-04T04:25:20.875Z,18.90
2019-06-04T04:27:50.624Z,18.90
2019-06-04T04:30:20.781Z,19.00
2019-06-04T04:32:49.976Z,19.10
2019-06-04T04:35:19.178Z,19.20
2019-06-04T04:37:49.221Z,19.30
2019-06-04T04:40:19.826Z,19.30
2019-06-04T04:42:48.611Z,19.20
2019-06-04T04:45:18.607Z,19.20
2019-06-04T04:47:47.700Z,19.20
2019-06-04T04:50:19.009Z,19.20
2019-06-04T04:52:47.975Z,19.30
2019-06-04T04:55:16.616Z,19.40
2019-06-04T04:57:45.120Z,19.50
2019-06-04T05:00:14.062Z,19.40
2019-06-04T05:02:42.696Z,19.40
2019-06-04T05:05:11.164Z,19.40
2019-06-04T05:07:41.797Z,19.60
2019-06-04T05:10:10.285Z,19.70
2019-06-04T05:12:40.636Z,19.80
2019-06-04T05:15:09.503Z,19.90
2019-06-04T05:17:39.284Z,19.90
2019-06-04T05:20:08.578Z,19.90
2019-06-04T05:22:37.103Z,20.00
2019-06-04T05:25:05.693Z,19.90
2019-06-04T05:27:34.124Z,19.90
2019-06-04T05:30:03.074Z,19.90
2019-06-04T05:32:32.382Z,19.90
2019-06-04T05:35:04.732Z,19.90
2019-06-04T05:37:31.297Z,19.90
2019-06-04T05:39:59.877Z,19.80
2019-06-04T05:42:28.623Z,19.70
2019-06-04T05:44:57.366Z,19.70
2019-06-04T05:47:26.593Z,19.70
2019-06-04T05:49:55.154Z,19.60
2019-06-04T05:52:24.782Z,19.70
2019-06-04T05:54:53.737Z,19.80
2019-06-04T05:57:22.686Z,20.00
2019-06-04T05:59:51.220Z,20.00
2019-06-04T06:02:19.810Z,20.10
2019-06-04T06:04:48.270Z,20.30
2019-06-04T06:07:16.713Z,20.30
2019-06-04T06:09:45.212Z,20.40
2019-06-04T06:12:13.638Z,20.40
2019-06-04T06:14:42.059Z,20.60
2019-06-04T06:17:10.547Z,20.60
2019-06-04T06:19:39.362Z,20.70
2019-06-04T06:22:07.772Z,20.60
2019-06-04T06:24:36.269Z,20.70
2019-06-04T06:27:05.242Z,20.70
2019-06-04T06:29:34.810Z,20.60
2019-06-04T06:32:03.363Z,20.80
2019-06-04T06:34:35.326Z,20.80
2019-06-04T06:37:01.949Z,21.00
2019-06-04T06:39:31.153Z,21.10
2019-06-04T06:41:59.989Z,21.20
2019-06-04T06:44:29.429Z,21.30
2019-06-04T06:46:58.017Z,21.30
2019-06-04T06:49:27.543Z,21.30
2019-06-04T06:51:56.255Z,21.40
2019-06-04T06:54:25.010Z,21.40
2019-06-04T06:56:53.815Z,21.50
2019-06-04T06:59:22.516Z,21.40
2019-06-04T07:01:51.422Z,21.20
2019-06-04T07:04:19.847Z,21.20
2019-06-04T07:06:48.804Z,21.30
2019-06-04T07:09:17.568Z,21.40
2019-06-04T07:11:46.823Z,21.50
2019-06-04T07:14:15.349Z,21.70
2019-06-04T07:16:43.776Z,21.70
2019-06-04T07:19:12.208Z,21.80
2019-06-04T07:21:41.006Z,21.80
2019-06-04T07:24:09.433Z,21.80
2019-06-04T07:26:38.890Z,21.80
2019-06-04T07:29:08.359Z,21.60
2019-06-04T07:31:39.522Z,21.70
2019-06-04T07:34:07.571Z,21.90
2019-06-04T07:36:37.141Z,21.90
2019-06-04T07:39:07.297Z,21.70
2019-06-04T07:41:37.844Z,21.70
2019-06-04T07:44:06.622Z,21.90
2019-06-04T07:46:35.304Z,22.00
2019-06-04T07:49:04.583Z,22.10
2019-06-04T07:51:33.830Z,22.30
2019-06-04T07:54:02.425Z,22.50
2019-06-04T07:56:31.773Z,22.60
2019-06-04T07:59:00.709Z,22.90
2019-06-04T08:01:47.828Z,23.10
2019-06-04T08:03:59.556Z,23.30
2019-06-04T08:06:43.201Z,23.50
2019-06-04T08:08:58.215Z,23.60
2019-06-04T08:11:26.976Z,23.70
2019-06-04T08:13:55.411Z,24.00
2019-06-04T08:16:24.152Z,24.30
2019-06-04T08:18:52.571Z,24.30
2019-06-04T08:21:21.258Z,24.40
2019-06-04T08:23:50.203Z,24.50
2019-06-04T08:26:19.051Z,24.70
2019-06-04T08:28:47.889Z,24.80
2019-06-04T08:31:16.344Z,24.90
2019-06-04T08:33:45.355Z,25.00
2019-06-04T08:36:14.182Z,24.90
2019-06-04T08:38:48.551Z,24.80
2019-06-04T08:41:12.883Z,24.80
2019-06-04T08:43:41.552Z,24.70
2019-06-04T08:46:10.125Z,24.70
2019-06-04T08:48:40.654Z,24.50
2019-06-04T08:51:09.002Z,24.60
2019-06-04T08:53:37.931Z,24.40
2019-06-04T08:56:07.072Z,24.20
2019-06-04T08:58:37.026Z,24.10
2019-06-04T09:01:05.665Z,23.90
2019-06-04T09:03:34.814Z,24.00
2019-06-04T09:06:04.315Z,23.90
2019-06-04T09:08:33.091Z,24.00
2019-06-04T09:11:01.864Z,24.10
2019-06-04T09:13:30.472Z,24.10
2019-06-04T09:15:59.392Z,24.20
2019-06-04T09:18:28.068Z,24.10
2019-06-04T09:20:56.483Z,24.00
2019-06-04T09:23:25.275Z,24.00
2019-06-04T09:25:53.766Z,24.00
2019-06-04T09:28:22.292Z,24.30
2019-06-04T09:31:01.754Z,24.30
2019-06-04T09:33:21.292Z,24.50
2019-06-04T09:35:50.348Z,24.70
2019-06-04T09:38:18.988Z,24.70
2019-06-04T09:40:49.843Z,24.80
2019-06-04T09:43:17.584Z,25.00
2019-06-04T09:45:47.320Z,25.30
2019-06-04T09:48:16.563Z,25.50
2019-06-04T09:50:53.624Z,25.50
2019-06-04T09:53:15.686Z,25.50
2019-06-04T09:55:46.360Z,25.70
2019-06-04T09:58:30.889Z,26.00
2019-06-04T10:00:48.573Z,26.10
2019-06-04T10:03:17.447Z,26.30
2019-06-04T10:05:45.870Z,26.40
2019-06-04T10:08:14.627Z,26.50
2019-06-04T10:10:44.931Z,26.60
2019-06-04T10:13:13.797Z,26.60
2019-06-04T10:15:42.912Z,26.80
2019-06-04T10:18:12.399Z,26.60
2019-06-04T10:20:41.077Z,26.50
2019-06-04T10:23:10.052Z,26.60
2019-06-04T10:25:39.043Z,26.80
2019-06-04T10:28:07.476Z,27.10
2019-06-04T10:30:36.992Z,27.20
2019-06-04T10:33:12.163Z,27.40
2019-06-04T10:35:36.991Z,27.60
2019-06-04T10:38:23.074Z,27.60
2019-06-04T10:40:37.360Z,27.50
2019-06-04T10:43:06.648Z,27.70
2019-06-04T10:45:35.559Z,27.70
2019-06-04T10:48:04.183Z,27.70
2019-06-04T10:50:34.992Z,27.80
2019-06-04T10:53:04.362Z,27.90
2019-06-04T10:55:32.788Z,28.20
2019-06-04T10:58:01.233Z,28.50
2019-06-04T11:00:55.745Z,28.80
2019-06-04T11:03:23.661Z,28.90
2019-06-04T11:05:52.644Z,28.80
2019-06-04T11:08:21.438Z,28.90
2019-06-04T11:10:51.759Z,28.80
2019-06-04T11:13:20.878Z,28.90
2019-06-04T11:15:50.016Z,28.90
2019-06-04T11:18:19.982Z,29.00
2019-06-04T11:20:48.684Z,28.80
2019-06-04T11:23:17.166Z,28.80
2019-06-04T11:25:45.672Z,29.10
2019-06-04T11:28:14.468Z,29.30
2019-06-04T11:30:44.817Z,29.30
2019-06-04T11:33:13.284Z,29.40
2019-06-04T11:35:41.708Z,29.80
2019-06-04T11:38:10.235Z,30.00
2019-06-04T11:40:39.301Z,30.10
2019-06-04T11:43:11.571Z,30.10
2019-06-04T11:45:41.761Z,30.10
2019-06-04T11:48:10.643Z,30.80
2019-06-04T11:50:39.414Z,31.60
2019-06-04T11:53:08.525Z,32.10
2019-06-04T11:55:39.274Z,32.80
2019-06-04T11:58:08.442Z,33.90
2019-06-04T12:00:47.616Z,34.30
2019-06-04T12:03:16.444Z,35.10
2019-06-04T12:05:45.096Z,35.30
2019-06-04T12:08:13.599Z,35.50
2019-06-04T12:10:42.084Z,35.60
2019-06-04T12:13:10.495Z,36.20
2019-06-04T12:15:39.295Z,36.50
2019-06-04T12:18:07.702Z,36.90
2019-06-04T12:20:36.402Z,36.90
2019-06-04T12:25:37.190Z,35.80
2019-06-04T12:28:07.316Z,36.00
2019-06-04T12:30:37.999Z,36.10
2019-06-04T12:33:06.680Z,36.20
2019-06-04T12:35:35.984Z,36.40
2019-06-04T12:38:08.934Z,36.70
2019-06-04T12:40:36.628Z,37.00
2019-06-04T12:43:06.410Z,37.20
2019-06-04T12:45:34.902Z,37.20
2019-06-04T12:48:04.244Z,37.40
2019-06-04T12:50:36.003Z,37.50
2019-06-04T12:53:06.158Z,37.60
2019-06-04T12:55:35.682Z,37.30
2019-06-04T12:58:06.527Z,37.10
2019-06-04T13:00:36.513Z,36.70
2019-06-04T13:03:06.263Z,36.40
2019-06-04T13:05:35.938Z,36.30
2019-06-04T13:08:22.691Z,36.20
2019-06-04T13:10:36.961Z,36.50
2019-06-04T13:13:05.481Z,36.50
2019-06-04T13:15:34.618Z,36.40
2019-06-04T13:18:11.062Z,36.70
2019-06-04T13:20:34.684Z,36.70
2019-06-04T13:23:05.624Z,36.70
2019-06-04T13:25:34.298Z,36.00
2019-06-04T13:28:07.124Z,35.80
2019-06-04T13:30:48.493Z,35.50
2019-06-04T13:33:17.366Z,35.10
2019-06-04T13:35:46.083Z,34.80
2019-06-04T13:38:14.851Z,34.90
2019-06-04T13:40:43.413Z,35.40
2019-06-04T13:43:12.177Z,36.10
2019-06-04T13:45:41.443Z,36.40
2019-06-04T13:48:09.981Z,36.90
2019-06-04T13:50:39.697Z,37.00
2019-06-04T13:53:15.007Z,36.90
2019-06-04T13:55:39.462Z,36.70
2019-06-04T13:58:13.837Z,35.60
2019-06-04T14:00:42.266Z,34.60
2019-06-04T14:03:11.542Z,33.90
2019-06-04T14:05:39.856Z,33.50
2019-06-04T14:08:09.739Z,33.30
2019-06-04T14:10:49.305Z,33.00
2019-06-04T14:13:12.295Z,33.10
2019-06-04T14:15:40.920Z,32.50
2019-06-04T14:18:11.068Z,32.30
2019-06-04T14:20:39.604Z,32.40
2019-06-04T14:23:14.643Z,31.90
2019-06-04T14:25:41.352Z,31.90
2019-06-04T14:28:12.006Z,31.80
2019-06-04T14:30:40.308Z,32.20
2019-06-04T14:33:10.229Z,32.40
2019-06-04T14:35:38.904Z,32.50
2019-06-04T14:38:08.326Z,32.70
2019-06-04T14:40:37.032Z,32.90
2019-06-04T14:43:07.498Z,33.20
2019-06-04T14:45:36.074Z,33.60
2019-06-04T14:48:04.555Z,33.90
2019-06-04T14:50:33.028Z,34.20
2019-06-04T14:53:01.453Z,34.80
2019-06-04T14:55:29.852Z,34.90
2019-06-04T14:57:58.291Z,35.40
2019-06-04T15:00:27.077Z,35.60
2019-06-04T15:02:55.483Z,36.30
2019-06-04T15:05:23.905Z,37.10
2019-06-04T15:08:01.678Z,37.70
2019-06-04T15:10:22.545Z,37.50
2019-06-04T15:12:51.041Z,37.30
2019-06-04T15:15:21.364Z,38.20
2019-06-04T15:17:50.027Z,38.50
2019-06-04T15:20:18.697Z,39.10
2019-06-04T15:22:47.238Z,39.80
2019-06-04T15:25:27.748Z,40.30
2019-06-04T15:27:57.450Z,40.40
2019-06-04T15:30:27.007Z,41.10
2019-06-04T15:32:55.961Z,41.60
2019-06-04T15:35:25.280Z,42.10
2019-06-04T15:37:54.046Z,42.00
2019-06-04T15:40:24.360Z,41.40
2019-06-04T15:42:55.076Z,41.80
2019-06-04T15:45:40.690Z,42.10
2019-06-04T15:48:10.583Z,42.50
2019-06-04T15:50:39.002Z,42.40
2019-06-04T15:53:08.079Z,42.60
2019-06-04T15:55:36.675Z,42.00
2019-06-04T15:58:06.396Z,41.60
2019-06-04T16:00:35.675Z,41.30
2019-06-04T16:03:05.871Z,40.80
2019-06-04T16:05:35.176Z,41.10
2019-06-04T16:08:04.159Z,41.10
2019-06-04T16:10:32.764Z,41.20
2019-06-04T16:13:01.168Z,40.80
2019-06-04T16:15:29.702Z,40.40
2019-06-04T16:17:58.321Z,40.70
2019-06-04T16:20:36.021Z,41.40
2019-06-04T16:23:02.228Z,42.00
2019-06-04T16:25:31.220Z,42.50
2019-06-04T16:28:13.376Z,42.10
2019-06-04T16:30:41.442Z,41.10
2019-06-04T16:33:10.233Z,41.10
2019-06-04T16:35:38.647Z,41.00
2019-06-04T16:38:08.241Z,39.90
2019-06-04T16:40:37.123Z,39.10
2019-06-04T16:43:06.595Z,38.10
2019-06-04T16:45:36.314Z,37.40
2019-06-04T16:48:05.307Z,37.20
2019-06-04T16:50:33.798Z,36.90
2019-06-04T16:53:02.472Z,36.80
2019-06-04T16:55:31.287Z,36.70
2019-06-04T16:57:59.737Z,36.70
2019-06-04T17:00:30.464Z,36.50
2019-06-04T17:02:58.523Z,36.50
2019-06-04T17:05:28.172Z,36.40
2019-06-04T17:07:57.208Z,36.00
2019-06-04T17:10:34.111Z,35.70
2019-06-04T17:13:16.912Z,35.40
2019-06-04T17:15:45.719Z,34.60
2019-06-04T17:18:14.138Z,34.00
2019-06-04T17:20:43.032Z,33.70
2019-06-04T17:23:11.521Z,33.40
2019-06-04T17:25:39.926Z,33.20
2019-06-04T17:28:08.415Z,33.20
2019-06-04T17:30:36.900Z,33.10
2019-06-04T17:33:07.441Z,32.90
2019-06-04T17:35:36.798Z,32.80
2019-06-04T17:38:06.049Z,32.80
2019-06-04T17:40:34.808Z,32.70
2019-06-04T17:43:06.662Z,32.60
2019-06-04T17:45:33.998Z,32.70
2019-06-04T17:48:02.652Z,32.50
2019-06-04T17:50:32.272Z,32.30
2019-06-04T17:53:01.138Z,32.20
2019-06-04T17:55:30.814Z,32.10
2019-06-04T17:57:59.512Z,31.90
2019-06-04T18:00:33.219Z,31.70
2019-06-04T18:03:01.999Z,31.70
2019-06-04T18:05:32.678Z,31.70
2019-06-04T18:08:00.620Z,31.50
2019-06-04T18:10:29.119Z,31.30
2019-06-04T18:12:57.879Z,31.20
2019-06-04T18:15:27.307Z,31.00
2019-06-04T18:17:55.755Z,31.10
2019-06-04T18:20:24.480Z,30.90
2019-06-04T18:22:52.918Z,30.80
2019-06-04T18:25:21.350Z,30.80
2019-06-04T18:27:49.752Z,30.70
2019-06-04T18:30:18.314Z,30.60
2019-06-04T18:32:46.822Z,30.70
2019-06-04T18:35:15.291Z,30.60
2019-06-04T18:37:43.743Z,30.60
2019-06-04T18:40:12.352Z,30.40
2019-06-04T18:42:40.771Z,30.40
2019-06-04T18:45:10.036Z,30.50
2019-06-04T18:47:39.065Z,30.40
2019-06-04T18:50:08.927Z,30.30
2019-06-04T18:52:37.581Z,30.10
2019-06-04T18:55:09.755Z,29.90
2019-06-04T18:57:38.452Z,29.90
2019-06-04T19:00:07.947Z,29.70
2019-06-04T19:02:36.784Z,29.60
2019-06-04T19:05:07.414Z,29.40
2019-06-04T19:07:36.973Z,29.30
2019-06-04T19:10:08.098Z,29.20
2019-06-04T19:12:37.457Z,29.20
2019-06-04T19:15:10.729Z,29.20
2019-06-04T19:17:41.372Z,29.00
2019-06-04T19:20:12.150Z,29.00
2019-06-04T19:22:41.550Z,29.00
2019-06-04T19:25:10.986Z,29.10
2019-06-04T19:27:39.538Z,29.10
2019-06-04T19:30:08.499Z,29.00
2019-06-04T19:32:42.103Z,29.00
2019-06-04T19:35:08.706Z,28.80
2019-06-04T19:37:37.371Z,28.70
2019-06-04T19:40:07.683Z,28.60
2019-06-04T19:42:37.020Z,28.50
2019-06-04T19:45:08.102Z,28.60
2019-06-04T19:47:36.589Z,28.50
2019-06-04T19:50:09.778Z,28.60
2019-06-04T19:52:38.898Z,28.50
2019-06-04T19:55:09.338Z,28.50
2019-06-04T19:57:39.193Z,28.50
2019-06-04T20:00:08.904Z,28.50
2019-06-04T20:02:37.779Z,28.30
2019-06-04T20:05:07.302Z,28.30
2019-06-04T20:07:36.351Z,28.30
2019-06-04T20:10:08.050Z,28.20
2019-06-04T20:12:37.201Z,28.10
2019-06-04T20:15:07.427Z,28.00
2019-06-04T20:17:37.334Z,27.80
2019-06-04T20:20:09.074Z,27.80
2019-06-04T20:22:37.957Z,27.60
2019-06-04T20:25:11.508Z,27.60
2019-06-04T20:27:40.950Z,27.50
2019-06-04T20:30:11.058Z,27.30
2019-06-04T20:32:42.952Z,27.40
2019-06-04T20:35:14.317Z,27.30
2019-06-04T20:37:48.790Z,27.20
2019-06-04T20:40:11.392Z,27.00
2019-06-04T20:42:39.862Z,27.00
2019-06-04T20:45:13.792Z,27.00
2019-06-04T20:47:40.047Z,27.00
2019-06-04T20:50:09.279Z,26.90
2019-06-04T20:52:37.711Z,26.90
2019-06-04T20:55:06.512Z,26.90
2019-06-04T20:57:35.085Z,26.90
2019-06-04T21:00:06.050Z,26.90
2019-06-04T21:02:34.481Z,26.80
2019-06-04T21:05:02.983Z,26.80
2019-06-04T21:07:31.422Z,26.70
2019-06-04T21:09:59.862Z,26.80
2019-06-04T21:12:28.336Z,26.90
2019-06-04T21:14:56.784Z,26.90
2019-06-04T21:17:25.183Z,26.80
2019-06-04T21:19:54.209Z,26.70
2019-06-04T21:22:23.084Z,26.80
2019-06-04T21:24:51.971Z,26.70
2019-06-04T21:27:20.479Z,26.70
2019-06-04T21:29:49.800Z,26.70
2019-06-04T21:32:18.514Z,26.70
2019-06-04T21:34:46.991Z,26.80
2019-06-04T21:37:15.790Z,26.70
2019-06-04T21:39:48.691Z,26.70
2019-06-04T21:42:14.367Z,26.80
2019-06-04T21:44:42.798Z,26.60
2019-06-04T21:47:11.272Z,26.60
2019-06-04T21:49:39.707Z,26.60
2019-06-04T21:52:08.121Z,26.60
2019-06-04T21:54:36.644Z,26.60
2019-06-04T21:57:05.470Z,26.50
2019-06-04T21:59:34.169Z,26.30
2019-06-04T22:02:02.683Z,26.20
2019-06-04T22:04:31.104Z,26.20
2019-06-04T22:07:00.896Z,26.00
2019-06-04T22:09:34.326Z,26.00
2019-06-04T22:12:03.092Z,25.90
2019-06-04T22:14:31.594Z,25.80
2019-06-04T22:17:00.904Z,25.90
2019-06-04T22:19:29.378Z,26.00
2019-06-04T22:21:58.970Z,26.10
2019-06-04T22:24:27.575Z,26.10
2019-06-04T22:26:56.263Z,26.20
2019-06-04T22:29:25.036Z,26.20
2019-06-04T22:31:54.952Z,26.20
2019-06-04T22:34:23.575Z,26.10
2019-06-04T22:36:53.561Z,26.20
2019-06-04T22:39:22.459Z,26.20
2019-06-04T22:41:51.608Z,26.20
2019-06-04T22:44:20.159Z,26.10
2019-06-04T22:46:49.424Z,26.10
2019-06-04T22:49:18.739Z,26.00
2019-06-04T22:51:47.172Z,26.00
2019-06-04T22:54:15.608Z,25.90
2019-06-04T22:56:44.369Z,25.80
2019-06-04T22:59:12.775Z,25.70
2019-06-04T23:01:41.250Z,25.30
2019-06-04T23:04:09.649Z,24.50
2019-06-04T23:06:38.340Z,23.70
2019-06-04T23:09:07.132Z,23.10
2019-06-04T23:11:35.548Z,22.70
2019-06-04T23:14:04.722Z,22.40
2019-06-04T23:16:37.665Z,22.20
2019-06-04T23:19:03.723Z,22.00
2019-06-04T23:21:32.350Z,21.80
2019-06-04T23:24:01.940Z,21.80
2019-06-04T23:26:30.588Z,21.80
2019-06-04T23:29:00.297Z,22.00
2019-06-04T23:31:28.842Z,22.00
2019-06-04T23:33:59.038Z,22.00
2019-06-04T23:36:27.684Z,22.10
2019-06-04T23:38:57.371Z,22.20
2019-06-04T23:41:26.015Z,22.20
2019-06-04T23:43:55.647Z,22.20
2019-06-04T23:46:24.311Z,22.30
2019-06-04T23:48:52.732Z,22.40
2019-06-04T23:51:21.464Z,22.10
2019-06-04T23:53:49.905Z,22.10
2019-06-04T23:56:18.298Z,22.10
2019-06-04T23:58:47.050Z,22.10
